sensor_id;sensor_type;location;lat;lon;timestamp;temperature;humidity
33811;DHT22;20119;48.334;16.206;2022-11-18T00:18:27;6.30;99.90
33811;DHT22;20119;48.334;16.206;2022-11-18T00:54:54;6.20;99.90
33811;DHT22;20119;48.334;16.206;2022-11-18T00:57:22;6.10;99.90
33811;DHT22;20119;48.334;16.206;2022-11-18T01:31:05;5.90;99.90
33811;DHT22;20119;48.334;16.206;2022-11-18T01:33:35;5.90;99.90
33811;DHT22;20119;48.334;16.206;2022-11-18T01:36:17;5.80;99.90
33811;DHT22;20119;48.334;16.206;2022-11-18T02:46:08;6.00;99.90
33811;DHT22;20119;48.334;16.206;2022-11-18T02:48:42;6.00;99.90
33811;DHT22;20119;48.334;16.206;2022-11-18T02:51:14;5.90;99.90
33811;DHT22;20119;48.334;16.206;2022-11-18T02:56:26;5.90;99.90
33811;DHT22;20119;48.334;16.206;2022-11-18T02:58:54;6.00;99.90
33811;DHT22;20119;48.334;16.206;2022-11-18T03:01:24;6.10;99.90
33811;DHT22;20119;48.334;16.206;2022-11-18T03:03:52;6.00;99.90
33811;DHT22;20119;48.334;16.206;2022-11-18T03:06:27;6.10;99.90
33811;DHT22;20119;48.334;16.206;2022-11-18T03:09:02;6.00;99.90
33811;DHT22;20119;48.334;16.206;2022-11-18T03:11:35;6.00;99.90
33811;DHT22;20119;48.334;16.206;2022-11-18T03:14:16;6.00;99.90
33811;DHT22;20119;48.334;16.206;2022-11-18T03:16:55;6.10;99.90
33811;DHT22;20119;48.334;16.206;2022-11-18T03:19:31;6.10;99.90
33811;DHT22;20119;48.334;16.206;2022-11-18T04:16:24;5.80;99.90
33811;DHT22;20119;48.334;16.206;2022-11-18T04:18:51;5.80;99.90
33811;DHT22;20119;48.334;16.206;2022-11-18T04:21:18;5.80;99.90
33811;DHT22;20119;48.334;16.206;2022-11-18T04:23:45;5.70;99.90
33811;DHT22;20119;48.334;16.206;2022-11-18T04:26:11;5.60;99.90
33811;DHT22;20119;48.334;16.206;2022-11-18T04:33:51;5.60;99.90
33811;DHT22;20119;48.334;16.206;2022-11-18T04:44:04;5.60;99.90
33811;DHT22;20119;48.334;16.206;2022-11-18T04:51:50;5.60;99.90
33811;DHT22;20119;48.334;16.206;2022-11-18T04:56:53;5.60;99.90
33811;DHT22;20119;48.334;16.206;2022-11-18T05:04:32;5.50;99.90
33811;DHT22;20119;48.334;16.206;2022-11-18T05:07:02;5.50;99.90
33811;DHT22;20119;48.334;16.206;2022-11-18T05:09:30;5.50;99.90
33811;DHT22;20119;48.334;16.206;2022-11-18T05:11:56;5.60;99.90
33811;DHT22;20119;48.334;16.206;2022-11-18T05:14:41;5.60;99.90
33811;DHT22;20119;48.334;16.206;2022-11-18T05:17:08;5.60;99.90
33811;DHT22;20119;48.334;16.206;2022-11-18T05:19:36;5.70;99.90
33811;DHT22;20119;48.334;16.206;2022-11-18T05:22:05;5.70;99.90
33811;DHT22;20119;48.334;16.206;2022-11-18T05:24:32;5.70;99.90
33811;DHT22;20119;48.334;16.206;2022-11-18T05:32:10;5.60;99.90
33811;DHT22;20119;48.334;16.206;2022-11-18T05:34:41;5.60;99.90
33811;DHT22;20119;48.334;16.206;2022-11-18T05:39:45;5.60;99.90
33811;DHT22;20119;48.334;16.206;2022-11-18T05:44:47;5.60;99.90
33811;DHT22;20119;48.334;16.206;2022-11-18T05:49:50;5.60;99.90
33811;DHT22;20119;48.334;16.206;2022-11-18T05:52:17;5.50;99.90
33811;DHT22;20119;48.334;16.206;2022-11-18T05:54:48;5.60;99.90
33811;DHT22;20119;48.334;16.206;2022-11-18T05:57:15;5.50;99.90
33811;DHT22;20119;48.334;16.206;2022-11-18T06:07:31;5.60;99.90
33811;DHT22;20119;48.334;16.206;2022-11-18T06:12:38;5.60;99.90
33811;DHT22;20119;48.334;16.206;2022-11-18T06:17:44;5.60;99.90
33811;DHT22;20119;48.334;16.206;2022-11-18T06:22:49;5.50;99.90
33811;DHT22;20119;48.334;16.206;2022-11-18T06:25:17;5.50;99.90
33811;DHT22;20119;48.334;16.206;2022-11-18T06:27:46;5.40;99.90
33811;DHT22;20119;48.334;16.206;2022-11-18T06:30:14;5.40;99.90
33811;DHT22;20119;48.334;16.206;2022-11-18T06:32:41;5.40;99.90
33811;DHT22;20119;48.334;16.206;2022-11-18T06:35:08;5.30;99.90
33811;DHT22;20119;48.334;16.206;2022-11-18T06:37:35;5.30;99.90
33811;DHT22;20119;48.334;16.206;2022-11-18T06:40:03;5.30;99.90
33811;DHT22;20119;48.334;16.206;2022-11-18T06:42:29;5.30;99.90
33811;DHT22;20119;48.334;16.206;2022-11-18T06:45:17;5.30;99.90
33811;DHT22;20119;48.334;16.206;2022-11-18T06:47:44;5.30;99.90
33811;DHT22;20119;48.334;16.206;2022-11-18T06:55:15;5.30;99.90
33811;DHT22;20119;48.334;16.206;2022-11-18T06:57:42;5.30;99.90
33811;DHT22;20119;48.334;16.206;2022-11-18T07:00:10;5.30;99.90
33811;DHT22;20119;48.334;16.206;2022-11-18T07:02:38;5.30;99.90
33811;DHT22;20119;48.334;16.206;2022-11-18T07:05:05;5.30;99.90
33811;DHT22;20119;48.334;16.206;2022-11-18T07:10:08;5.50;99.90
33811;DHT22;20119;48.334;16.206;2022-11-18T07:12:35;5.40;99.90
33811;DHT22;20119;48.334;16.206;2022-11-18T07:15:30;5.50;99.90
33811;DHT22;20119;48.334;16.206;2022-11-18T07:17:57;5.60;99.90
33811;DHT22;20119;48.334;16.206;2022-11-18T07:20:23;5.60;99.90
33811;DHT22;20119;48.334;16.206;2022-11-18T07:22:51;5.60;99.90
33811;DHT22;20119;48.334;16.206;2022-11-18T07:25:18;5.60;99.90
33811;DHT22;20119;48.334;16.206;2022-11-18T07:27:45;5.60;99.90
33811;DHT22;20119;48.334;16.206;2022-11-18T07:30:13;5.50;99.90
33811;DHT22;20119;48.334;16.206;2022-11-18T07:32:41;5.50;99.90
33811;DHT22;20119;48.334;16.206;2022-11-18T07:35:08;5.60;99.90
33811;DHT22;20119;48.334;16.206;2022-11-18T07:37:35;5.60;99.90
33811;DHT22;20119;48.334;16.206;2022-11-18T07:42:37;5.70;99.90
33811;DHT22;20119;48.334;16.206;2022-11-18T07:45:09;5.70;99.90
33811;DHT22;20119;48.334;16.206;2022-11-18T07:47:36;5.80;99.90
33811;DHT22;20119;48.334;16.206;2022-11-18T07:50:05;5.80;99.90
33811;DHT22;20119;48.334;16.206;2022-11-18T07:52:32;5.70;99.90
33811;DHT22;20119;48.334;16.206;2022-11-18T07:54:59;5.60;99.90
33811;DHT22;20119;48.334;16.206;2022-11-18T07:57:26;5.60;99.90
33811;DHT22;20119;48.334;16.206;2022-11-18T07:59:52;5.70;99.90
33811;DHT22;20119;48.334;16.206;2022-11-18T08:02:19;5.60;99.90
33811;DHT22;20119;48.334;16.206;2022-11-18T08:04:46;5.70;99.90
33811;DHT22;20119;48.334;16.206;2022-11-18T08:09:50;5.60;99.90
33811;DHT22;20119;48.334;16.206;2022-11-18T08:12:17;5.60;99.90
33811;DHT22;20119;48.334;16.206;2022-11-18T08:17:15;5.40;99.90
33811;DHT22;20119;48.334;16.206;2022-11-18T08:22:18;5.50;99.90
33811;DHT22;20119;48.334;16.206;2022-11-18T08:27:23;5.60;99.90
33811;DHT22;20119;48.334;16.206;2022-11-18T08:29:50;5.70;99.90
33811;DHT22;20119;48.334;16.206;2022-11-18T08:32:17;5.60;99.90
33811;DHT22;20119;48.334;16.206;2022-11-18T08:37:17;5.70;99.90
33811;DHT22;20119;48.334;16.206;2022-11-18T08:39:44;5.70;99.90
33811;DHT22;20119;48.334;16.206;2022-11-18T08:42:10;5.70;99.90
33811;DHT22;20119;48.334;16.206;2022-11-18T08:44:39;5.60;99.90
33811;DHT22;20119;48.334;16.206;2022-11-18T08:47:06;5.70;99.90
33811;DHT22;20119;48.334;16.206;2022-11-18T08:49:33;5.70;99.90
33811;DHT22;20119;48.334;16.206;2022-11-18T08:51:59;5.70;99.90
33811;DHT22;20119;48.334;16.206;2022-11-18T08:54:26;5.80;99.90
33811;DHT22;20119;48.334;16.206;2022-11-18T08:59:29;5.90;99.90
33811;DHT22;20119;48.334;16.206;2022-11-18T09:01:58;5.90;99.90
33811;DHT22;20119;48.334;16.206;2022-11-18T09:07:00;5.80;99.90
33811;DHT22;20119;48.334;16.206;2022-11-18T09:09:28;5.90;99.90
33811;DHT22;20119;48.334;16.206;2022-11-18T09:11:54;6.00;99.90
33811;DHT22;20119;48.334;16.206;2022-11-18T09:14:21;6.00;99.90
33811;DHT22;20119;48.334;16.206;2022-11-18T09:19:24;6.00;99.90
33811;DHT22;20119;48.334;16.206;2022-11-18T09:21:51;6.00;99.90
33811;DHT22;20119;48.334;16.206;2022-11-18T09:24:18;5.80;99.90
33811;DHT22;20119;48.334;16.206;2022-11-18T09:29:22;6.00;99.90
33811;DHT22;20119;48.334;16.206;2022-11-18T09:31:50;6.00;99.90
33811;DHT22;20119;48.334;16.206;2022-11-18T09:34:17;6.10;99.90
33811;DHT22;20119;48.334;16.206;2022-11-18T09:36:46;6.10;99.90
33811;DHT22;20119;48.334;16.206;2022-11-18T09:39:13;6.20;99.90
33811;DHT22;20119;48.334;16.206;2022-11-18T09:44:15;6.30;99.90
33811;DHT22;20119;48.334;16.206;2022-11-18T09:46:55;6.30;99.90
33811;DHT22;20119;48.334;16.206;2022-11-18T09:49:27;6.40;99.90
33811;DHT22;20119;48.334;16.206;2022-11-18T09:51:56;6.30;99.90
33811;DHT22;20119;48.334;16.206;2022-11-18T09:54:30;6.30;99.90
33811;DHT22;20119;48.334;16.206;2022-11-18T09:56:59;6.40;99.90
33811;DHT22;20119;48.334;16.206;2022-11-18T10:02:28;6.10;99.90
33811;DHT22;20119;48.334;16.206;2022-11-18T10:05:00;6.20;99.90
33811;DHT22;20119;48.334;16.206;2022-11-18T10:07:41;6.20;99.90
33811;DHT22;20119;48.334;16.206;2022-11-18T10:18:05;6.00;99.90
33811;DHT22;20119;48.334;16.206;2022-11-18T10:20:47;6.10;99.90
33811;DHT22;20119;48.334;16.206;2022-11-18T10:23:22;6.10;99.90
33811;DHT22;20119;48.334;16.206;2022-11-18T10:28:27;6.10;99.90
33811;DHT22;20119;48.334;16.206;2022-11-18T10:33:27;6.20;99.90
33811;DHT22;20119;48.334;16.206;2022-11-18T10:36:24;6.30;99.90
33811;DHT22;20119;48.334;16.206;2022-11-18T10:57:18;6.10;99.90
33811;DHT22;20119;48.334;16.206;2022-11-18T10:59:48;6.20;99.90
33811;DHT22;20119;48.334;16.206;2022-11-18T11:10:19;6.10;99.90
33811;DHT22;20119;48.334;16.206;2022-11-18T11:15:31;6.20;99.90
33811;DHT22;20119;48.334;16.206;2022-11-18T11:18:02;6.20;99.90
33811;DHT22;20119;48.334;16.206;2022-11-18T11:23:25;6.20;99.90
33811;DHT22;20119;48.334;16.206;2022-11-18T11:28:29;6.20;99.90
33811;DHT22;20119;48.334;16.206;2022-11-18T11:31:08;6.30;99.90
33811;DHT22;20119;48.334;16.206;2022-11-18T11:33:41;6.20;99.90
33811;DHT22;20119;48.334;16.206;2022-11-18T11:41:41;6.30;99.90
33811;DHT22;20119;48.334;16.206;2022-11-18T11:44:22;6.30;99.90
33811;DHT22;20119;48.334;16.206;2022-11-18T11:49:40;6.40;99.90
33811;DHT22;20119;48.334;16.206;2022-11-18T11:52:12;6.40;99.90
33811;DHT22;20119;48.334;16.206;2022-11-18T11:54:45;6.40;99.90
33811;DHT22;20119;48.334;16.206;2022-11-18T12:02:55;6.30;99.90
33811;DHT22;20119;48.334;16.206;2022-11-18T12:05:30;6.30;99.90
33811;DHT22;20119;48.334;16.206;2022-11-18T12:08:02;6.10;99.90
33811;DHT22;20119;48.334;16.206;2022-11-18T12:10:37;6.10;99.90
33811;DHT22;20119;48.334;16.206;2022-11-18T12:15:53;6.10;99.90
33811;DHT22;20119;48.334;16.206;2022-11-18T12:18:27;6.20;99.90
33811;DHT22;20119;48.334;16.206;2022-11-18T12:20:57;6.20;99.90
33811;DHT22;20119;48.334;16.206;2022-11-18T12:23:26;6.10;99.90
33811;DHT22;20119;48.334;16.206;2022-11-18T12:31:29;6.10;99.90
33811;DHT22;20119;48.334;16.206;2022-11-18T12:33:59;5.80;99.90
33811;DHT22;20119;48.334;16.206;2022-11-18T12:36:31;5.80;99.90
33811;DHT22;20119;48.334;16.206;2022-11-18T12:42:04;5.70;99.90
33811;DHT22;20119;48.334;16.206;2022-11-18T12:44:50;5.60;99.90
33811;DHT22;20119;48.334;16.206;2022-11-18T13:00:39;5.40;99.90
33811;DHT22;20119;48.334;16.206;2022-11-18T13:03:24;5.40;99.90
33811;DHT22;20119;48.334;16.206;2022-11-18T13:08:42;5.30;99.90
33811;DHT22;20119;48.334;16.206;2022-11-18T13:13:50;5.30;99.90
33811;DHT22;20119;48.334;16.206;2022-11-18T13:16:29;5.30;99.90
33811;DHT22;20119;48.334;16.206;2022-11-18T13:19:20;5.20;99.90
33811;DHT22;20119;48.334;16.206;2022-11-18T13:21:52;5.20;99.90
33811;DHT22;20119;48.334;16.206;2022-11-18T13:24:46;5.20;99.90
33811;DHT22;20119;48.334;16.206;2022-11-18T13:27:24;5.10;99.90
33811;DHT22;20119;48.334;16.206;2022-11-18T13:29:59;5.10;99.90
33811;DHT22;20119;48.334;16.206;2022-11-18T13:37:49;5.20;99.90
33811;DHT22;20119;48.334;16.206;2022-11-18T13:40:22;5.10;99.90
33811;DHT22;20119;48.334;16.206;2022-11-18T13:42:49;5.10;99.90
33811;DHT22;20119;48.334;16.206;2022-11-18T13:45:16;5.10;99.90
33811;DHT22;20119;48.334;16.206;2022-11-18T13:47:45;5.20;99.90
33811;DHT22;20119;48.334;16.206;2022-11-18T13:50:16;5.20;99.90
33811;DHT22;20119;48.334;16.206;2022-11-18T13:52:49;5.10;99.90
33811;DHT22;20119;48.334;16.206;2022-11-18T13:55:22;5.00;99.90
33811;DHT22;20119;48.334;16.206;2022-11-18T13:57:50;5.00;99.90
33811;DHT22;20119;48.334;16.206;2022-11-18T14:00:22;4.90;99.90
33811;DHT22;20119;48.334;16.206;2022-11-18T14:02:55;5.00;99.90
33811;DHT22;20119;48.334;16.206;2022-11-18T14:05:23;5.00;99.90
33811;DHT22;20119;48.334;16.206;2022-11-18T14:07:58;4.80;99.90
33811;DHT22;20119;48.334;16.206;2022-11-18T14:13:02;4.70;99.90
33811;DHT22;20119;48.334;16.206;2022-11-18T14:15:34;4.80;99.90
33811;DHT22;20119;48.334;16.206;2022-11-18T14:18:02;4.80;99.90
33811;DHT22;20119;48.334;16.206;2022-11-18T14:20:30;4.80;99.90
33811;DHT22;20119;48.334;16.206;2022-11-18T14:22:58;4.90;99.90
33811;DHT22;20119;48.334;16.206;2022-11-18T14:25:30;4.70;99.90
33811;DHT22;20119;48.334;16.206;2022-11-18T14:33:17;4.50;99.90
33811;DHT22;20119;48.334;16.206;2022-11-18T14:35:50;4.40;99.90
33811;DHT22;20119;48.334;16.206;2022-11-18T14:38:20;4.40;99.90
33811;DHT22;20119;48.334;16.206;2022-11-18T14:40:53;4.40;99.90
33811;DHT22;20119;48.334;16.206;2022-11-18T14:43:20;4.30;99.90
33811;DHT22;20119;48.334;16.206;2022-11-18T14:45:47;4.30;99.90
33811;DHT22;20119;48.334;16.206;2022-11-18T14:48:19;4.20;99.90
33811;DHT22;20119;48.334;16.206;2022-11-18T14:50:47;4.10;99.90
33811;DHT22;20119;48.334;16.206;2022-11-18T14:53:13;4.20;99.90
33811;DHT22;20119;48.334;16.206;2022-11-18T14:55:47;4.00;99.90
33811;DHT22;20119;48.334;16.206;2022-11-18T14:58:15;4.10;99.90
33811;DHT22;20119;48.334;16.206;2022-11-18T15:00:42;4.00;99.90
33811;DHT22;20119;48.334;16.206;2022-11-18T15:03:10;4.10;99.90
33811;DHT22;20119;48.334;16.206;2022-11-18T15:05:38;4.00;99.90
33811;DHT22;20119;48.334;16.206;2022-11-18T15:08:06;3.90;99.90
33811;DHT22;20119;48.334;16.206;2022-11-18T15:10:34;3.90;99.90
33811;DHT22;20119;48.334;16.206;2022-11-18T15:13:01;3.80;99.90
33811;DHT22;20119;48.334;16.206;2022-11-18T15:15:28;3.70;99.90
33811;DHT22;20119;48.334;16.206;2022-11-18T15:17:55;3.70;99.90
33811;DHT22;20119;48.334;16.206;2022-11-18T15:20:22;3.60;99.90
33811;DHT22;20119;48.334;16.206;2022-11-18T15:22:50;3.60;99.90
33811;DHT22;20119;48.334;16.206;2022-11-18T15:25:17;3.50;99.90
33811;DHT22;20119;48.334;16.206;2022-11-18T15:27:44;3.50;99.90
33811;DHT22;20119;48.334;16.206;2022-11-18T15:30:12;3.50;99.90
33811;DHT22;20119;48.334;16.206;2022-11-18T15:32:40;3.50;99.90
33811;DHT22;20119;48.334;16.206;2022-11-18T15:35:10;3.60;99.90
33811;DHT22;20119;48.334;16.206;2022-11-18T15:37:37;3.50;99.90
33811;DHT22;20119;48.334;16.206;2022-11-18T15:40:06;3.50;99.90
33811;DHT22;20119;48.334;16.206;2022-11-18T15:45:08;3.40;99.90
33811;DHT22;20119;48.334;16.206;2022-11-18T15:47:35;3.40;99.90
33811;DHT22;20119;48.334;16.206;2022-11-18T15:50:03;3.40;99.90
33811;DHT22;20119;48.334;16.206;2022-11-18T15:52:30;3.40;99.90
33811;DHT22;20119;48.334;16.206;2022-11-18T15:54:56;3.30;99.90
33811;DHT22;20119;48.334;16.206;2022-11-18T15:57:25;3.40;99.90
33811;DHT22;20119;48.334;16.206;2022-11-18T15:59:52;3.40;99.90
33811;DHT22;20119;48.334;16.206;2022-11-18T16:02:19;3.30;99.90
33811;DHT22;20119;48.334;16.206;2022-11-18T16:04:45;3.30;99.90
33811;DHT22;20119;48.334;16.206;2022-11-18T16:07:12;3.30;99.90
33811;DHT22;20119;48.334;16.206;2022-11-18T16:09:39;3.40;99.90
33811;DHT22;20119;48.334;16.206;2022-11-18T16:12:25;3.40;99.90
33811;DHT22;20119;48.334;16.206;2022-11-18T16:15:10;3.30;99.90
33811;DHT22;20119;48.334;16.206;2022-11-18T16:17:55;3.30;99.90
33811;DHT22;20119;48.334;16.206;2022-11-18T16:20:22;3.30;99.90
33811;DHT22;20119;48.334;16.206;2022-11-18T16:25:24;3.30;99.90
33811;DHT22;20119;48.334;16.206;2022-11-18T16:27:53;3.20;99.90
33811;DHT22;20119;48.334;16.206;2022-11-18T16:30:27;3.20;99.90
33811;DHT22;20119;48.334;16.206;2022-11-18T16:33:12;3.20;99.90
33811;DHT22;20119;48.334;16.206;2022-11-18T16:35:45;3.30;99.90
33811;DHT22;20119;48.334;16.206;2022-11-18T16:38:12;3.30;99.90
33811;DHT22;20119;48.334;16.206;2022-11-18T16:40:39;3.20;99.90
33811;DHT22;20119;48.334;16.206;2022-11-18T16:43:07;3.20;99.90
33811;DHT22;20119;48.334;16.206;2022-11-18T16:45:34;3.10;99.90
33811;DHT22;20119;48.334;16.206;2022-11-18T16:48:01;3.10;99.90
33811;DHT22;20119;48.334;16.206;2022-11-18T16:50:28;3.10;99.90
33811;DHT22;20119;48.334;16.206;2022-11-18T16:52:56;2.90;99.90
33811;DHT22;20119;48.334;16.206;2022-11-18T16:55:23;2.90;99.90
33811;DHT22;20119;48.334;16.206;2022-11-18T16:57:50;2.80;99.90
33811;DHT22;20119;48.334;16.206;2022-11-18T17:00:19;2.80;99.90
33811;DHT22;20119;48.334;16.206;2022-11-18T17:02:45;2.70;99.90
33811;DHT22;20119;48.334;16.206;2022-11-18T17:05:12;2.60;99.90
33811;DHT22;20119;48.334;16.206;2022-11-18T17:07:39;2.50;99.90
33811;DHT22;20119;48.334;16.206;2022-11-18T17:10:07;2.50;99.90
33811;DHT22;20119;48.334;16.206;2022-11-18T17:12:44;2.50;99.90
33811;DHT22;20119;48.334;16.206;2022-11-18T17:15:11;2.50;99.90
33811;DHT22;20119;48.334;16.206;2022-11-18T17:17:40;2.40;99.90
33811;DHT22;20119;48.334;16.206;2022-11-18T17:20:07;2.50;99.90
33811;DHT22;20119;48.334;16.206;2022-11-18T17:22:34;2.40;99.90
33811;DHT22;20119;48.334;16.206;2022-11-18T17:25:01;2.40;99.90
33811;DHT22;20119;48.334;16.206;2022-11-18T17:27:29;2.40;99.90
33811;DHT22;20119;48.334;16.206;2022-11-18T17:29:56;2.40;99.90
33811;DHT22;20119;48.334;16.206;2022-11-18T17:32:22;2.40;99.90
33811;DHT22;20119;48.334;16.206;2022-11-18T17:34:51;2.40;99.90
33811;DHT22;20119;48.334;16.206;2022-11-18T17:37:18;2.30;99.90
33811;DHT22;20119;48.334;16.206;2022-11-18T17:39:45;2.40;99.90
33811;DHT22;20119;48.334;16.206;2022-11-18T17:42:12;2.40;99.90
33811;DHT22;20119;48.334;16.206;2022-11-18T17:44:43;2.30;99.90
33811;DHT22;20119;48.334;16.206;2022-11-18T17:47:11;2.30;99.90
33811;DHT22;20119;48.334;16.206;2022-11-18T17:49:38;2.30;99.90
33811;DHT22;20119;48.334;16.206;2022-11-18T17:52:07;2.30;99.90
33811;DHT22;20119;48.334;16.206;2022-11-18T17:54:37;2.30;99.90
33811;DHT22;20119;48.334;16.206;2022-11-18T17:57:03;2.30;99.90
33811;DHT22;20119;48.334;16.206;2022-11-18T17:59:30;2.20;99.90
33811;DHT22;20119;48.334;16.206;2022-11-18T18:01:58;2.30;99.90
33811;DHT22;20119;48.334;16.206;2022-11-18T18:04:25;2.30;99.90
33811;DHT22;20119;48.334;16.206;2022-11-18T18:06:52;2.30;99.90
33811;DHT22;20119;48.334;16.206;2022-11-18T18:09:22;2.10;99.90
33811;DHT22;20119;48.334;16.206;2022-11-18T18:11:49;2.10;99.90
33811;DHT22;20119;48.334;16.206;2022-11-18T18:16:51;2.00;99.90
33811;DHT22;20119;48.334;16.206;2022-11-18T18:19:20;2.00;99.90
33811;DHT22;20119;48.334;16.206;2022-11-18T18:21:47;2.00;99.90
33811;DHT22;20119;48.334;16.206;2022-11-18T18:24:15;1.90;99.90
33811;DHT22;20119;48.334;16.206;2022-11-18T18:26:47;2.00;99.90
33811;DHT22;20119;48.334;16.206;2022-11-18T18:29:14;2.00;99.90
33811;DHT22;20119;48.334;16.206;2022-11-18T18:31:42;2.00;99.90
33811;DHT22;20119;48.334;16.206;2022-11-18T18:34:09;2.10;99.90
33811;DHT22;20119;48.334;16.206;2022-11-18T18:36:36;2.00;99.90
33811;DHT22;20119;48.334;16.206;2022-11-18T18:39:03;1.90;99.90
33811;DHT22;20119;48.334;16.206;2022-11-18T18:41:30;1.80;99.90
33811;DHT22;20119;48.334;16.206;2022-11-18T18:43:59;1.80;99.90
33811;DHT22;20119;48.334;16.206;2022-11-18T18:46:26;1.80;99.90
33811;DHT22;20119;48.334;16.206;2022-11-18T18:49:01;1.80;99.90
33811;DHT22;20119;48.334;16.206;2022-11-18T18:51:30;1.80;99.90
33811;DHT22;20119;48.334;16.206;2022-11-18T18:53:58;1.80;99.90
33811;DHT22;20119;48.334;16.206;2022-11-18T18:56:26;1.80;99.90
33811;DHT22;20119;48.334;16.206;2022-11-18T18:58:53;1.80;99.90
33811;DHT22;20119;48.334;16.206;2022-11-18T19:01:21;1.80;99.90
33811;DHT22;20119;48.334;16.206;2022-11-18T19:03:52;1.80;99.90
33811;DHT22;20119;48.334;16.206;2022-11-18T19:06:21;1.90;99.90
33811;DHT22;20119;48.334;16.206;2022-11-18T19:08:50;1.80;99.90
33811;DHT22;20119;48.334;16.206;2022-11-18T19:11:17;1.90;99.90
33811;DHT22;20119;48.334;16.206;2022-11-18T19:14:04;1.90;99.90
33811;DHT22;20119;48.334;16.206;2022-11-18T19:16:33;1.80;99.90
33811;DHT22;20119;48.334;16.206;2022-11-18T19:19:00;1.90;99.90
33811;DHT22;20119;48.334;16.206;2022-11-18T19:21:27;1.90;99.90
33811;DHT22;20119;48.334;16.206;2022-11-18T19:37:17;1.90;99.90
33811;DHT22;20119;48.334;16.206;2022-11-18T19:39:44;1.90;99.90
33811;DHT22;20119;48.334;16.206;2022-11-18T19:42:11;2.00;99.90
33811;DHT22;20119;48.334;16.206;2022-11-18T19:44:38;1.90;99.90
33811;DHT22;20119;48.334;16.206;2022-11-18T19:47:05;1.90;99.90
33811;DHT22;20119;48.334;16.206;2022-11-18T19:59:55;2.00;99.90
33811;DHT22;20119;48.334;16.206;2022-11-18T20:02:22;2.00;99.90
33811;DHT22;20119;48.334;16.206;2022-11-18T20:04:49;2.10;99.90
33811;DHT22;20119;48.334;16.206;2022-11-18T20:15:20;2.10;99.90
33811;DHT22;20119;48.334;16.206;2022-11-18T20:17:47;2.00;99.90
33811;DHT22;20119;48.334;16.206;2022-11-18T20:20:15;2.00;99.90
33811;DHT22;20119;48.334;16.206;2022-11-18T20:33:05;1.70;99.90
33811;DHT22;20119;48.334;16.206;2022-11-18T20:35:32;1.70;99.90
33811;DHT22;20119;48.334;16.206;2022-11-18T20:40:34;1.70;99.90
33811;DHT22;20119;48.334;16.206;2022-11-18T20:43:01;1.60;99.90
33811;DHT22;20119;48.334;16.206;2022-11-18T20:45:40;1.60;99.90
33811;DHT22;20119;48.334;16.206;2022-11-18T20:48:10;1.60;99.90
33811;DHT22;20119;48.334;16.206;2022-11-18T20:55:49;1.60;99.90
33811;DHT22;20119;48.334;16.206;2022-11-18T20:58:16;1.50;99.90
33811;DHT22;20119;48.334;16.206;2022-11-18T21:00:43;1.50;99.90
33811;DHT22;20119;48.334;16.206;2022-11-18T21:13:33;1.40;99.90
33811;DHT22;20119;48.334;16.206;2022-11-18T21:16:18;1.40;99.90
33811;DHT22;20119;48.334;16.206;2022-11-18T21:18:45;1.40;99.90
33811;DHT22;20119;48.334;16.206;2022-11-18T21:31:35;1.20;99.90
33811;DHT22;20119;48.334;16.206;2022-11-18T21:36:37;1.10;99.90
33811;DHT22;20119;48.334;16.206;2022-11-18T21:39:05;1.20;99.90
33811;DHT22;20119;48.334;16.206;2022-11-18T21:46:44;1.20;99.90
33811;DHT22;20119;48.334;16.206;2022-11-18T21:49:11;1.20;99.90
33811;DHT22;20119;48.334;16.206;2022-11-18T21:54:13;1.10;99.90
33811;DHT22;20119;48.334;16.206;2022-11-18T21:56:42;1.10;99.90
33811;DHT22;20119;48.334;16.206;2022-11-18T21:59:09;1.10;99.90
33811;DHT22;20119;48.334;16.206;2022-11-18T22:04:13;1.10;99.90
33811;DHT22;20119;48.334;16.206;2022-11-18T22:07:01;1.10;99.90
33811;DHT22;20119;48.334;16.206;2022-11-18T22:09:28;1.10;99.90
33811;DHT22;20119;48.334;16.206;2022-11-18T22:11:55;1.00;99.90
33811;DHT22;20119;48.334;16.206;2022-11-18T22:16:57;1.00;99.90
33811;DHT22;20119;48.334;16.206;2022-11-18T22:19:25;1.00;99.90
33811;DHT22;20119;48.334;16.206;2022-11-18T22:27:03;1.00;99.90
33811;DHT22;20119;48.334;16.206;2022-11-18T22:37:17;0.80;99.90
33811;DHT22;20119;48.334;16.206;2022-11-18T22:42:19;0.80;99.90
33811;DHT22;20119;48.334;16.206;2022-11-18T22:45:04;0.90;99.90
33811;DHT22;20119;48.334;16.206;2022-11-18T22:50:08;1.00;99.90
33811;DHT22;20119;48.334;16.206;2022-11-18T22:55:12;0.90;99.90
33811;DHT22;20119;48.334;16.206;2022-11-18T23:00:07;0.90;99.90
33811;DHT22;20119;48.334;16.206;2022-11-18T23:05:10;0.90;99.90
33811;DHT22;20119;48.334;16.206;2022-11-18T23:10:14;1.00;99.90
33811;DHT22;20119;48.334;16.206;2022-11-18T23:12:40;1.00;99.90
33811;DHT22;20119;48.334;16.206;2022-11-18T23:15:25;0.90;99.90
33811;DHT22;20119;48.334;16.206;2022-11-18T23:17:51;0.90;99.90
33811;DHT22;20119;48.334;16.206;2022-11-18T23:46:15;0.70;99.90
33811;DHT22;20119;48.334;16.206;2022-11-18T23:51:19;0.70;99.90
33811;DHT22;20119;48.334;16.206;2022-11-18T23:53:50;0.70;99.90
33811;DHT22;20119;48.334;16.206;2022-11-18T23:58:54;0.70;99.90
